Time;durP1;ratioP1;P1;durP2;ratioP2;P2;SDS_P1;SDS_P2;PMS_P1;PMS_P2;Temp;Humidity;BMP_temperature;BMP_pressure;BME280_temperature;BME280_humidity;BME280_pressure;Samples;Min_cycle;Max_cycle;Signal;HPM_P1;HPM_P2
2024/04/01 00:01:00;;;;;;;52.90;38.97;;;;;;;-146.25;100.00;52469.56;2087797;28;20088;-62
2024/04/01 00:02:03;;;;;;;56.83;39.75;;;;;;;-146.25;100.00;52441.19;2088032;28;20878;-62
2024/04/01 00:03:04;;;;;;;52.72;37.67;;;;;;;-146.25;100.00;52483.78;2096251;28;20921;-62
2024/04/01 00:04:05;;;;;;;57.42;35.33;;;;;;;-146.25;100.00;52473.63;2096074;28;20041;-61
2024/04/01 00:05:06;;;;;;;54.25;35.95;;;;;;;-146.25;100.00;52481.75;2096211;28;20046;-61
2024/04/01 00:06:07;;;;;;;54.13;35.47;;;;;;;-146.25;100.00;52481.75;2088055;28;20117;-61
2024/04/01 00:07:08;;;;;;;50.92;35.50;;;;;;;-146.25;100.00;52447.28;2089237;28;20108;-61
2024/04/01 00:08:08;;;;;;;55.20;34.70;;;;;;;-146.25;100.00;52473.63;2089497;28;20677;-62
2024/04/01 00:09:09;;;;;;;48.95;31.98;;;;;;;-146.25;100.00;52441.19;2090028;28;20045;-61
2024/04/01 00:10:10;;;;;;;49.58;32.42;;;;;;;-146.25;100.00;52429.03;2089103;28;20042;-61
2024/04/01 00:11:13;;;;;;;51.83;34.70;;;;;;;-146.25;100.00;52445.25;2097890;28;20037;-61
2024/04/01 00:12:14;;;;;;;51.00;33.65;;;;;;;-146.25;100.00;52437.13;2105687;28;20874;-62
2024/04/01 00:13:16;;;;;;;45.67;32.25;;;;;;;-146.25;100.00;52420.91;2097698;28;20140;-61
2024/04/01 00:14:17;;;;;;;47.03;31.83;;;;;;;-146.25;100.00;52461.47;2097121;28;20044;-61
2024/04/01 00:15:18;;;;;;;50.22;31.73;;;;;;;-146.25;100.00;52447.28;2089136;28;20070;-61
2024/04/01 00:16:19;;;;;;;46.78;30.17;;;;;;;-146.25;100.00;52495.94;2098075;28;20108;-62
2024/04/01 00:17:20;;;;;;;48.17;31.70;;;;;;;-146.25;100.00;52429.03;2089189;28;20079;-62
2024/04/01 00:18:21;;;;;;;49.25;31.52;;;;;;;-146.25;100.00;52437.13;2089231;28;20128;-61
2024/04/01 00:19:21;;;;;;;46.47;30.75;;;;;;;-146.25;100.00;52445.25;2088718;28;20053;-62
2024/04/01 00:20:22;;;;;;;47.03;30.77;;;;;;;-146.25;100.00;52475.66;2097173;28;20380;-62
2024/04/01 00:21:23;;;;;;;42.85;26.80;;;;;;;-146.25;100.00;52457.41;2097229;28;20041;-62
2024/04/01 00:22:24;;;;;;;42.35;29.10;;;;;;;-146.25;100.00;52506.06;2097546;28;20037;-62
2024/04/01 00:23:25;;;;;;;41.55;28.73;;;;;;;-146.25;100.00;52437.13;2097606;28;20041;-61
2024/04/01 00:24:26;;;;;;;45.20;29.20;;;;;;;-146.25;100.00;52435.09;2097340;28;20033;-62
2024/04/01 00:25:27;;;;;;;45.10;26.77;;;;;;;-146.25;100.00;52481.75;2097121;28;20041;-62
2024/04/01 00:26:27;;;;;;;42.28;28.08;;;;;;;-146.25;100.00;52429.03;2089147;28;20046;-61
2024/04/01 00:27:28;;;;;;;39.13;28.00;;;;;;;-146.25;100.00;52473.63;2088870;28;20050;-61
2024/04/01 00:28:31;;;;;;;47.78;27.42;;;;;;;-146.25;100.00;52416.84;2089291;28;20050;-62
2024/04/01 00:29:32;;;;;;;40.22;26.35;;;;;;;-146.25;100.00;52443.22;2096867;28;20045;-61
2024/04/01 00:30:34;;;;;;;36.80;24.73;;;;;;;-146.25;100.00;52483.78;2088893;28;20033;-62
2024/04/01 00:31:35;;;;;;;34.45;23.95;;;;;;;-146.25;100.00;52461.47;2089133;28;20040;-62
2024/04/01 00:32:36;;;;;;;40.75;25.05;;;;;;;-146.25;100.00;52443.22;2089228;28;20423;-62
2024/04/01 00:33:37;;;;;;;38.85;25.60;;;;;;;-146.25;100.00;52449.31;2088857;28;20129;-61
2024/04/01 00:34:38;;;;;;;35.92;23.45;;;;;;;-146.25;100.00;52493.91;2097676;28;20045;-62
2024/04/01 00:35:40;;;;;;;41.10;23.88;;;;;;;-146.25;100.00;52465.53;2097012;28;20534;-62
2024/04/01 00:36:40;;;;;;;40.67;23.58;;;;;;;-146.25;100.00;52447.28;2080760;28;20136;-62
2024/04/01 00:37:42;;;;;;;38.35;22.00;;;;;;;-146.25;100.00;52467.56;2081369;28;20471;-61
2024/04/01 00:38:42;;;;;;;36.15;23.40;;;;;;;-146.25;100.00;52497.97;2089320;28;20033;-62
2024/04/01 00:39:43;;;;;;;41.70;22.52;;;;;;;-146.25;100.00;52483.78;2089010;28;20472;-62
2024/04/01 00:40:44;;;;;;;36.88;22.98;;;;;;;-146.25;100.00;52469.56;2088697;28;20097;-62
2024/04/01 00:41:45;;;;;;;29.98;22.17;;;;;;;-146.25;100.00;52477.69;2089221;28;20459;-61
2024/04/01 00:42:48;;;;;;;37.35;22.65;;;;;;;-146.25;100.00;52473.63;2089242;28;20546;-62
2024/04/01 00:43:49;;;;;;;40.08;22.48;;;;;;;-146.25;100.00;52449.31;2089238;28;21122;-61
2024/04/01 00:44:50;;;;;;;43.22;23.45;;;;;;;-146.25;100.00;52439.16;2089162;28;20042;-61
2024/04/01 00:45:53;;;;;;;34.30;21.83;;;;;;;-146.25;100.00;52441.19;2088984;28;20388;-62
2024/04/01 00:46:54;;;;;;;44.67;21.98;;;;;;;-146.25;100.00;52455.38;2089207;28;20048;-62
2024/04/01 00:47:59;;;;;;;31.58;21.50;;;;;;;-146.25;100.00;52453.34;2088989;28;20867;-62
2024/04/01 00:49:00;;;;;;;39.25;22.23;;;;;;;-146.25;100.00;52455.38;2089851;28;20037;-62
2024/04/01 00:50:04;;;;;;;39.33;22.83;;;;;;;-146.25;100.00;52479.72;2089066;28;20033;-61
2024/04/01 00:51:05;;;;;;;32.15;20.58;;;;;;;-146.25;100.00;52500.00;2072717;28;20046;-62
2024/04/01 00:52:06;;;;;;;38.78;22.40;;;;;;;-146.25;100.00;52431.06;2081354;28;20185;-62
2024/04/01 00:53:10;;;;;;;31.85;21.25;;;;;;;-146.25;100.00;52463.50;2080961;28;20052;-62
2024/04/01 00:54:13;;;;;;;31.83;20.50;;;;;;;-146.25;100.00;52485.81;2089150;28;20037;-61
2024/04/01 00:55:16;;;;;;;37.03;21.15;;;;;;;-146.25;100.00;52457.41;2088224;28;20958;-62
2024/04/01 00:56:18;;;;;;;36.90;20.52;;;;;;;-146.25;100.00;52457.41;2080582;28;20038;-62
2024/04/01 00:57:21;;;;;;;35.85;20.13;;;;;;;-146.25;100.00;52487.81;2088972;28;20034;-61
2024/04/01 00:58:22;;;;;;;38.75;21.02;;;;;;;-146.25;100.00;52473.63;2080835;28;20030;-61
2024/04/01 00:59:27;;;;;;;31.23;20.65;;;;;;;-146.25;100.00;52433.06;2080978;28;20038;-61
2024/04/01 01:00:28;;;;;;;34.13;19.30;;;;;;;-146.25;100.00;52451.31;2090005;28;20037;-61
2024/04/01 01:01:33;;;;;;;37.63;20.48;;;;;;;-146.25;100.00;52473.63;2089221;28;20658;-62
2024/04/01 01:02:33;;;;;;;31.90;18.77;;;;;;;-146.25;100.00;52461.47;2080907;28;20045;-62
2024/04/01 01:03:35;;;;;;;34.00;19.95;;;;;;;-146.25;100.00;52485.81;2081361;28;20048;-61
2024/04/01 01:04:36;;;;;;;36.85;19.33;;;;;;;-146.25;100.00;52483.78;2088931;28;20910;-61
2024/04/01 01:05:37;;;;;;;32.72;18.58;;;;;;;-146.25;100.00;52449.31;2080538;28;20046;-61
2024/04/01 01:06:41;;;;;;;30.58;18.67;;;;;;;-146.25;100.00;52461.47;2072676;28;20038;-61
2024/04/01 01:07:44;;;;;;;32.80;18.63;;;;;;;-146.25;100.00;52497.97;2081261;28;20460;-61
2024/04/01 01:08:45;;;;;;;31.48;18.23;;;;;;;-146.25;100.00;52489.84;2089215;28;20040;-62
2024/04/01 01:09:48;;;;;;;29.20;18.42;;;;;;;-146.25;100.00;52479.72;2080342;28;20186;-62
2024/04/01 01:10:48;;;;;;;36.20;18.00;;;;;;;-146.25;100.00;52461.47;2080778;28;20997;-62
2024/04/01 01:11:49;;;;;;;31.98;19.33;;;;;;;-146.25;100.00;52487.81;2072593;28;20053;-63
2024/04/01 01:12:51;;;;;;;35.88;19.20;;;;;;;-146.25;100.00;52437.13;2072595;28;21066;-61
2024/04/01 01:13:52;;;;;;;34.60;18.70;;;;;;;-146.25;100.00;52473.63;2089143;28;20948;-62
2024/04/01 01:14:53;;;;;;;32.40;18.23;;;;;;;-146.25;100.00;52477.69;2088621;28;20124;-62
2024/04/01 01:15:56;;;;;;;38.63;18.77;;;;;;;-146.25;100.00;52445.25;2097112;28;20037;-62
2024/04/01 01:16:56;;;;;;;35.33;19.42;;;;;;;-146.25;100.00;52457.41;2089183;28;20791;-61
2024/04/01 01:18:00;;;;;;;34.22;18.33;;;;;;;-146.25;100.00;52477.69;2089095;28;20910;-61
2024/04/01 01:19:01;;;;;;;30.38;18.13;;;;;;;-146.25;100.00;52431.06;2088914;28;20180;-62
2024/04/01 01:20:03;;;;;;;31.27;17.00;;;;;;;-146.25;100.00;52483.78;2096943;28;20045;-60
2024/04/01 01:21:04;;;;;;;33.75;17.20;;;;;;;-146.25;100.00;52453.34;2089169;28;20042;-62
2024/04/01 01:22:06;;;;;;;31.55;18.20;;;;;;;-146.25;100.00;52455.38;2089297;28;20044;-62
2024/04/01 01:23:08;;;;;;;30.42;17.45;;;;;;;-146.25;100.00;52461.47;2088896;28;20049;-62
2024/04/01 01:24:09;;;;;;;33.45;17.83;;;;;;;-146.25;100.00;52422.94;2089099;28;20041;-62
2024/04/01 01:25:10;;;;;;;36.95;17.92;;;;;;;-146.25;100.00;52420.91;2086636;28;20037;-62
2024/04/01 01:26:11;;;;;;;33.47;17.52;;;;;;;-146.25;100.00;52429.03;2087587;28;20041;-62
2024/04/01 01:27:12;;;;;;;30.90;16.90;;;;;;;-146.25;100.00;52445.25;2088690;28;20045;-62
2024/04/01 01:28:12;;;;;;;30.13;17.55;;;;;;;-146.25;100.00;52465.53;2088420;28;20060;-62
2024/04/01 01:29:13;;;;;;;35.00;17.33;;;;;;;-146.25;100.00;52463.50;2088877;28;20049;-62
2024/04/01 01:30:15;;;;;;;31.30;17.50;;;;;;;-146.25;100.00;52453.34;2088431;28;20562;-62
2024/04/01 01:31:17;;;;;;;31.77;17.13;;;;;;;-146.25;100.00;52485.81;2088318;28;20033;-62
2024/04/01 01:32:18;;;;;;;31.25;17.58;;;;;;;-146.25;100.00;52457.41;2096914;28;21012;-62
2024/04/01 01:33:19;;;;;;;32.63;16.80;;;;;;;-146.25;100.00;52489.84;2096776;28;20037;-62
2024/04/01 01:34:20;;;;;;;30.05;17.42;;;;;;;-146.25;100.00;52475.66;2088786;28;20898;-61
2024/04/01 01:35:23;;;;;;;33.22;17.80;;;;;;;-146.25;100.00;52485.81;2088705;28;20053;-62
2024/04/01 01:36:24;;;;;;;28.60;16.35;;;;;;;-146.25;100.00;52467.56;2088988;28;20029;-62
2024/04/01 01:37:27;;;;;;;25.83;15.98;;;;;;;-146.25;100.00;52500.00;2088902;28;20049;-61
2024/04/01 01:38:28;;;;;;;29.02;16.30;;;;;;;-146.25;100.00;52469.56;2080533;28;20192;-62
2024/04/01 01:39:29;;;;;;;31.50;17.45;;;;;;;-146.25;100.00;52479.72;2088481;28;20037;-61
2024/04/01 01:40:30;;;;;;;28.00;17.05;;;;;;;-146.25;100.00;52473.63;2096591;28;20056;-62
2024/04/01 01:41:31;;;;;;;29.95;16.58;;;;;;;-146.25;100.00;52455.38;2088699;28;20123;-62
2024/04/01 01:42:36;;;;;;;35.88;16.60;;;;;;;-146.25;100.00;52483.78;2088639;28;20937;-62
2024/04/01 01:43:36;;;;;;;26.67;16.40;;;;;;;-146.25;100.00;52463.50;2089428;28;20068;-62
2024/04/01 01:44:37;;;;;;;31.50;16.55;;;;;;;-146.25;100.00;52477.69;2080309;28;20092;-62
2024/04/01 01:45:38;;;;;;;31.48;16.35;;;;;;;-146.25;100.00;52445.25;2080602;28;20108;-62
2024/04/01 01:46:39;;;;;;;28.23;15.68;;;;;;;-146.25;100.00;52481.75;2096688;28;20172;-62
2024/04/01 01:47:40;;;;;;;32.92;16.38;;;;;;;-146.25;100.00;52447.28;2080576;28;20045;-62
2024/04/01 01:48:41;;;;;;;30.02;16.60;;;;;;;-146.25;100.00;52489.84;2080692;28;20042;-61
2024/04/01 01:49:42;;;;;;;27.90;15.82;;;;;;;-146.25;100.00;52455.38;2097015;28;20483;-61
2024/04/01 01:50:42;;;;;;;28.80;16.95;;;;;;;-146.25;100.00;52473.63;2096678;28;20107;-61
2024/04/01 01:51:43;;;;;;;30.45;16.92;;;;;;;-146.25;100.00;52437.13;2088496;28;20042;-62
2024/04/01 01:52:46;;;;;;;31.98;16.90;;;;;;;-146.25;100.00;52491.88;2088941;28;20124;-61
2024/04/01 01:53:47;;;;;;;28.63;16.15;;;;;;;-146.25;100.00;52471.59;2089045;28;20030;-62
2024/04/01 01:54:48;;;;;;;28.92;16.73;;;;;;;-146.25;100.00;52457.41;2096745;28;20542;-60
2024/04/01 01:55:48;;;;;;;26.63;16.17;;;;;;;-146.25;100.00;52433.06;2098554;28;20032;-61
2024/04/01 01:56:49;;;;;;;31.65;15.57;;;;;;;-146.25;100.00;52451.31;2088726;28;20484;-62
2024/04/01 01:57:50;;;;;;;30.35;16.23;;;;;;;-146.25;100.00;52473.63;2088847;28;20084;-61
2024/04/01 01:58:51;;;;;;;24.65;15.32;;;;;;;-146.25;100.00;52487.81;2088721;28;20492;-61
2024/04/01 01:59:52;;;;;;;25.00;14.32;;;;;;;-146.25;100.00;52487.81;2072090;28;20038;-62
2024/04/01 02:00:53;;;;;;;31.92;15.55;;;;;;;-146.25;100.00;52445.25;2078053;28;20045;-61
2024/04/01 02:01:53;;;;;;;31.02;16.08;;;;;;;-146.25;100.00;52457.41;2088287;28;20468;-62
2024/04/01 02:02:56;;;;;;;25.77;16.13;;;;;;;-146.25;100.00;52451.31;2088298;28;20094;-62
2024/04/01 02:03:57;;;;;;;26.42;15.15;;;;;;;-146.25;100.00;52504.03;2088744;28;20053;-61
2024/04/01 02:04:59;;;;;;;29.63;16.02;;;;;;;-146.25;100.00;52457.41;2088397;28;20550;-62
2024/04/01 02:06:00;;;;;;;34.30;16.23;;;;;;;-146.25;100.00;52465.53;2089326;28;20084;-61
2024/04/01 02:07:04;;;;;;;26.98;16.58;;;;;;;-146.25;100.00;52489.84;2080538;28;20073;-61
2024/04/01 02:08:05;;;;;;;27.77;15.50;;;;;;;-146.25;100.00;52485.81;2080865;28;20148;-61
2024/04/01 02:09:08;;;;;;;24.23;15.77;;;;;;;-146.25;100.00;52495.94;2088780;28;20100;-61
2024/04/01 02:10:09;;;;;;;33.67;15.45;;;;;;;-146.25;100.00;52461.47;2088147;28;20049;-61
2024/04/01 02:11:12;;;;;;;28.42;15.95;;;;;;;-146.25;100.00;52479.72;2088377;28;20045;-62
2024/04/01 02:12:13;;;;;;;27.42;14.85;;;;;;;-146.25;100.00;52477.69;2088481;28;20077;-62
2024/04/01 02:13:14;;;;;;;31.45;15.65;;;;;;;-146.25;100.00;52465.53;2071430;28;20050;-61
2024/04/01 02:14:15;;;;;;;25.13;15.45;;;;;;;-146.25;100.00;52479.72;2080577;28;20046;-62
2024/04/01 02:15:24;;;;;;;29.83;16.17;;;;;;;-146.25;100.00;52455.38;2088500;28;20080;-62
2024/04/01 02:16:27;;;;;;;26.38;15.68;;;;;;;-146.25;100.00;52485.81;2089826;28;21398;-61
2024/04/01 02:17:28;;;;;;;27.48;15.55;;;;;;;-146.25;100.00;52495.94;2088712;28;20080;-61
2024/04/01 02:18:29;;;;;;;30.60;14.98;;;;;;;-146.25;100.00;52479.72;2088391;28;20056;-61
2024/04/01 02:19:35;;;;;;;30.73;16.65;;;;;;;-146.25;100.00;52461.47;2096951;28;20037;-62
2024/04/01 02:20:35;;;;;;;32.75;16.25;;;;;;;-146.25;100.00;52481.75;2097016;28;20044;-61
2024/04/01 02:21:37;;;;;;;25.70;16.52;;;;;;;-146.25;100.00;52481.75;2088555;28;20069;-61
2024/04/01 02:22:38;;;;;;;26.67;15.23;;;;;;;-146.25;100.00;52493.91;2096871;28;20033;-60
2024/04/01 02:23:38;;;;;;;27.08;15.63;;;;;;;-146.25;100.00;52508.09;2096648;28;20138;-61
2024/04/01 02:24:41;;;;;;;28.05;15.43;;;;;;;-146.25;100.00;52514.19;2096287;28;20510;-61
2024/04/01 02:25:41;;;;;;;24.08;14.98;;;;;;;-146.25;100.00;52483.78;2096041;28;20936;-62
2024/04/01 02:26:42;;;;;;;28.92;16.38;;;;;;;-146.25;100.00;52514.19;2079969;28;20100;-61
2024/04/01 02:27:47;;;;;;;28.67;17.00;;;;;;;-146.25;100.00;52502.03;2080115;28;20604;-61
2024/04/01 02:28:49;;;;;;;29.15;16.02;;;;;;;-146.25;100.00;52504.03;2088674;28;20037;-60
2024/04/01 02:29:50;;;;;;;30.65;16.55;;;;;;;-146.25;100.00;52451.31;2088450;28;20112;-60
2024/04/01 02:30:51;;;;;;;27.33;16.58;;;;;;;-146.25;100.00;52495.94;2088544;28;20670;-61
2024/04/01 02:31:51;;;;;;;26.65;15.88;;;;;;;-146.25;100.00;52451.31;2096928;28;20033;-61
2024/04/01 02:32:52;;;;;;;31.00;16.45;;;;;;;-146.25;100.00;52481.75;2088302;28;20096;-61
2024/04/01 02:33:53;;;;;;;29.27;16.08;;;;;;;-146.25;100.00;52457.41;2088314;28;20085;-61
2024/04/01 02:34:54;;;;;;;28.77;15.65;;;;;;;-146.25;100.00;52481.75;2088341;28;20038;-61
2024/04/01 02:35:55;;;;;;;27.02;16.00;;;;;;;-146.25;100.00;52475.66;2080390;28;20112;-64
2024/04/01 02:36:55;;;;;;;30.23;16.15;;;;;;;-146.25;100.00;52483.78;2080351;28;20125;-61
2024/04/01 02:37:56;;;;;;;27.98;16.73;;;;;;;-146.25;100.00;52481.75;2079292;28;20112;-62
2024/04/01 02:38:57;;;;;;;24.23;15.48;;;;;;;-146.25;100.00;52477.69;2078887;28;20140;-61
2024/04/01 02:39:58;;;;;;;27.65;15.90;;;;;;;-146.25;100.00;52459.44;2088343;28;20068;-62
2024/04/01 02:41:01;;;;;;;27.45;16.88;;;;;;;-146.25;100.00;52457.41;2096000;28;20049;-61
2024/04/01 02:42:02;;;;;;;33.75;17.30;;;;;;;-146.25;100.00;52506.06;2096649;28;20033;-61
2024/04/01 02:43:03;;;;;;;32.75;17.00;;;;;;;-146.25;100.00;52500.00;2096686;28;20029;-61
2024/04/01 02:44:04;;;;;;;34.67;17.73;;;;;;;-146.25;100.00;52514.19;2104632;28;20071;-61
2024/04/01 02:45:05;;;;;;;29.52;17.17;;;;;;;-146.25;100.00;52489.84;2096633;28;20033;-62
2024/04/01 02:46:06;;;;;;;29.50;18.25;;;;;;;-146.25;100.00;52485.81;2096749;28;20060;-61
2024/04/01 02:47:07;;;;;;;29.15;17.58;;;;;;;-146.25;100.00;52477.69;2088236;28;20038;-61
2024/04/01 02:48:08;;;;;;;32.17;16.63;;;;;;;-146.25;100.00;52477.69;2088350;28;20880;-62
2024/04/01 02:49:10;;;;;;;27.02;16.83;;;;;;;-146.25;100.00;52477.69;2088707;28;20904;-62
2024/04/01 02:50:11;;;;;;;30.00;17.05;;;;;;;-146.25;100.00;52514.19;2088465;28;20045;-62
2024/04/01 02:51:12;;;;;;;27.40;17.05;;;;;;;-146.25;100.00;52502.03;2088141;28;20527;-62
2024/04/01 02:52:13;;;;;;;31.80;17.50;;;;;;;-146.25;100.00;52514.19;2096561;28;20068;-61
2024/04/01 02:53:16;;;;;;;35.08;18.15;;;;;;;-146.25;100.00;52491.88;2088465;28;20046;-62
2024/04/01 02:54:17;;;;;;;36.70;18.77;;;;;;;-146.25;100.00;52489.84;2088560;28;20125;-61
2024/04/01 02:55:18;;;;;;;27.10;17.63;;;;;;;-146.25;100.00;52510.13;2087763;28;20049;-64
2024/04/01 02:56:19;;;;;;;29.30;16.77;;;;;;;-146.25;100.00;52469.56;2088741;28;20064;-61
2024/04/01 02:57:20;;;;;;;30.15;17.85;;;;;;;-146.25;100.00;52459.44;2087979;28;20045;-61
2024/04/01 02:58:23;;;;;;;33.65;17.83;;;;;;;-146.25;100.00;52465.53;2096757;28;20124;-61
2024/04/01 02:59:24;;;;;;;35.63;18.10;;;;;;;-146.25;100.00;52457.41;2088514;28;20033;-61
2024/04/01 03:00:25;;;;;;;31.90;17.58;;;;;;;-146.25;100.00;52475.66;2088218;28;20114;-61
2024/04/01 03:01:26;;;;;;;32.35;17.90;;;;;;;-146.25;100.00;52465.53;2088345;28;20128;-61
2024/04/01 03:02:27;;;;;;;29.38;18.08;;;;;;;-146.25;100.00;52489.84;2088345;28;20076;-61
2024/04/01 03:03:28;;;;;;;32.40;18.25;;;;;;;-146.25;100.00;52465.53;2096504;28;20115;-61
2024/04/01 03:04:29;;;;;;;30.08;18.38;;;;;;;-146.25;100.00;52485.81;2087954;28;20431;-61
2024/04/01 03:05:29;;;;;;;30.48;17.75;;;;;;;-146.25;100.00;52506.06;2079726;28;20034;-63
2024/04/01 03:06:30;;;;;;;28.42;17.55;;;;;;;-146.25;100.00;52481.75;2080156;28;20045;-61
2024/04/01 03:07:31;;;;;;;30.80;18.52;;;;;;;-146.25;100.00;52489.84;2096357;28;20448;-61
2024/04/01 03:08:33;;;;;;;32.67;17.50;;;;;;;-146.25;100.00;52424.97;2088387;28;20045;-62
2024/04/01 03:09:33;;;;;;;28.48;16.77;;;;;;;-146.25;100.00;52463.50;2088253;28;20867;-61
2024/04/01 03:10:36;;;;;;;30.42;17.92;;;;;;;-146.25;100.00;52485.81;2087403;28;20091;-61
2024/04/01 03:11:37;;;;;;;28.27;17.08;;;;;;;-146.25;100.00;52487.81;2080589;28;20045;-61
2024/04/01 03:12:42;;;;;;;26.77;17.75;;;;;;;-146.25;100.00;52455.38;2088169;28;20488;-61
2024/04/01 03:13:42;;;;;;;33.67;17.98;;;;;;;-146.25;100.00;52477.69;2087791;28;20033;-62
2024/04/01 03:14:46;;;;;;;30.40;18.58;;;;;;;-146.25;100.00;52483.78;2088093;28;20419;-61
2024/04/01 03:15:47;;;;;;;33.25;17.85;;;;;;;-146.25;100.00;52489.84;2087990;28;20048;-61
2024/04/01 03:16:51;;;;;;;30.95;16.77;;;;;;;-146.25;100.00;52520.28;2088094;28;20037;-62
2024/04/01 03:17:51;;;;;;;32.38;17.02;;;;;;;-146.25;100.00;52473.63;2088007;28;20041;-64
2024/04/01 03:18:52;;;;;;;32.35;18.00;;;;;;;-146.25;100.00;52489.84;2088033;28;20053;-61
2024/04/01 03:19:53;;;;;;;30.20;17.92;;;;;;;-146.25;100.00;52461.47;2088199;28;20427;-62
2024/04/01 03:20:54;;;;;;;27.33;17.02;;;;;;;-146.25;100.00;52477.69;2087928;28;20038;-61
2024/04/01 03:21:55;;;;;;;24.55;16.75;;;;;;;-146.25;100.00;52485.81;2088368;28;20503;-61
2024/04/01 03:22:55;;;;;;;34.40;17.77;;;;;;;-146.25;100.00;52461.47;2079666;28;20057;-62
2024/04/01 03:23:58;;;;;;;29.08;16.55;;;;;;;-146.25;100.00;52465.53;2063640;28;20074;-62
2024/04/01 03:24:59;;;;;;;26.38;16.95;;;;;;;-146.25;100.00;52457.41;2071981;28;20043;-62
2024/04/01 03:26:00;;;;;;;25.13;16.13;;;;;;;-146.25;100.00;52487.81;2079217;28;20484;-62
2024/04/01 03:27:01;;;;;;;30.08;16.67;;;;;;;-146.25;100.00;52500.00;2088239;28;20851;-61
2024/04/01 03:28:02;;;;;;;25.55;16.48;;;;;;;-146.25;100.00;52495.94;2088076;28;20061;-61
2024/04/01 03:29:03;;;;;;;30.85;16.65;;;;;;;-146.25;100.00;52457.41;2096284;28;20037;-62
2024/04/01 03:30:05;;;;;;;28.33;16.88;;;;;;;-146.25;100.00;52487.81;2096183;28;20399;-61
2024/04/01 03:31:11;;;;;;;29.15;16.52;;;;;;;-146.25;100.00;52455.38;2088362;28;21013;-62
2024/04/01 03:32:11;;;;;;;24.73;15.05;;;;;;;-146.25;100.00;52481.75;2097078;28;20068;-62
2024/04/01 03:33:13;;;;;;;30.38;17.20;;;;;;;-146.25;100.00;52485.81;2096839;28;20151;-62
2024/04/01 03:34:14;;;;;;;28.42;15.68;;;;;;;-146.25;100.00;52487.81;2079705;28;20042;-61
2024/04/01 03:35:17;;;;;;;29.08;16.17;;;;;;;-146.25;100.00;52485.81;2079590;28;20053;-62
2024/04/01 03:36:18;;;;;;;30.63;16.63;;;;;;;-146.25;100.00;52461.47;2087922;28;20041;-62
2024/04/01 03:37:19;;;;;;;28.85;16.30;;;;;;;-146.25;100.00;52459.44;2088375;28;20053;-60
2024/04/01 03:38:24;;;;;;;32.60;17.25;;;;;;;-146.25;100.00;52459.44;2109818;22;20184;-66
2024/04/01 03:39:28;;;;;;;28.15;16.05;;;;;;;-146.25;100.00;52465.53;2090825;28;20080;-65
2024/04/01 03:40:29;;;;;;;29.92;16.40;;;;;;;-146.25;100.00;52465.53;2079391;28;20030;-64
2024/04/01 03:41:31;;;;;;;29.95;16.55;;;;;;;-146.25;100.00;52471.59;2071133;28;20075;-64
2024/04/01 03:42:32;;;;;;;26.10;15.82;;;;;;;-146.25;100.00;52469.56;2079891;28;20076;-63
2024/04/01 03:43:32;;;;;;;32.67;17.45;;;;;;;-146.25;100.00;52447.28;2087662;28;20060;-64
2024/04/01 03:44:33;;;;;;;24.73;16.48;;;;;;;-146.25;100.00;52471.59;2087878;28;20096;-64
2024/04/01 03:45:35;;;;;;;26.33;16.25;;;;;;;-146.25;100.00;52465.53;2087741;28;20529;-64
2024/04/01 03:46:39;;;;;;;24.95;16.35;;;;;;;-146.25;100.00;52461.47;2094768;28;20032;-64
2024/04/01 03:47:42;;;;;;;31.17;16.40;;;;;;;-146.25;100.00;52495.94;2096209;28;20037;-63
2024/04/01 03:48:43;;;;;;;29.75;16.88;;;;;;;-146.25;100.00;52481.75;2088146;28;20971;-64
2024/04/01 03:49:44;;;;;;;28.73;17.45;;;;;;;-146.25;100.00;52477.69;2087863;28;20046;-64
2024/04/01 03:50:44;;;;;;;27.83;16.45;;;;;;;-146.25;100.00;52485.81;2096288;28;20045;-64
2024/04/01 03:51:47;;;;;;;24.30;15.95;;;;;;;-146.25;100.00;52493.91;2096187;28;20037;-64
2024/04/01 03:52:47;;;;;;;26.85;16.70;;;;;;;-146.25;100.00;52497.97;2096556;28;20041;-64
2024/04/01 03:53:48;;;;;;;30.58;18.05;;;;;;;-146.25;100.00;52493.91;2096135;28;20136;-66
2024/04/01 03:54:49;;;;;;;28.75;16.65;;;;;;;-146.25;100.00;52471.59;2088054;28;20064;-64
2024/04/01 03:55:50;;;;;;;27.58;16.35;;;;;;;-146.25;100.00;52453.34;2087412;28;20043;-64
2024/04/01 03:56:51;;;;;;;28.67;17.40;;;;;;;-146.25;100.00;52493.91;2096476;28;20407;-66
2024/04/01 03:57:54;;;;;;;27.70;16.83;;;;;;;-146.25;100.00;52445.25;2095896;28;20052;-66
2024/04/01 03:58:58;;;;;;;30.55;16.88;;;;;;;-146.25;100.00;52487.81;2080065;28;21014;-65
2024/04/01 03:59:59;;;;;;;31.00;17.60;;;;;;;-146.25;100.00;52493.91;2079891;28;20939;-65
2024/04/01 04:01:00;;;;;;;31.55;16.90;;;;;;;-146.25;100.00;52477.69;2087641;28;20044;-65
2024/04/01 04:02:06;;;;;;;29.95;16.70;;;;;;;-146.25;100.00;52457.41;2088070;28;20396;-65
2024/04/01 04:03:07;;;;;;;27.90;16.55;;;;;;;-146.25;100.00;52479.72;2080228;28;20149;-64
2024/04/01 04:04:08;;;;;;;30.35;18.30;;;;;;;-146.25;100.00;52487.81;2079553;28;20046;-64
2024/04/01 04:05:11;;;;;;;27.75;16.38;;;;;;;-146.25;100.00;52477.69;2096171;28;20183;-64
2024/04/01 04:06:11;;;;;;;23.50;16.90;;;;;;;-146.25;100.00;52467.56;2097390;28;20041;-65
2024/04/01 04:07:13;;;;;;;27.20;16.88;;;;;;;-146.25;100.00;52497.97;2104576;28;20063;-64
2024/04/01 04:08:14;;;;;;;24.60;16.15;;;;;;;-146.25;100.00;52500.00;2104027;28;20114;-65
2024/04/01 04:09:16;;;;;;;21.98;16.10;;;;;;;-146.25;100.00;52493.91;2107404;28;20293;-64
2024/04/01 04:10:19;;;;;;;26.60;16.60;;;;;;;-146.25;100.00;52451.31;2112823;28;20036;-66
2024/04/01 04:11:20;;;;;;;26.92;17.10;;;;;;;-146.25;100.00;52469.56;2103631;28;20106;-65
2024/04/01 04:12:21;;;;;;;30.33;16.98;;;;;;;-146.25;100.00;52485.81;2096417;28;20049;-65
2024/04/01 04:13:21;;;;;;;32.83;18.35;;;;;;;-146.25;100.00;52477.69;2096050;28;20076;-64
2024/04/01 04:14:24;;;;;;;26.77;17.17;;;;;;;-146.25;100.00;52500.00;2095983;28;20045;-65
2024/04/01 04:15:28;;;;;;;29.17;17.23;;;;;;;-146.25;100.00;52447.28;2096442;28;20889;-65
2024/04/01 04:16:29;;;;;;;33.20;18.52;;;;;;;-146.25;100.00;52453.34;2104650;28;20945;-64
2024/04/01 04:17:33;;;;;;;28.77;17.75;;;;;;;-146.25;100.00;52497.97;2104766;28;20036;-65
2024/04/01 04:18:34;;;;;;;30.13;18.02;;;;;;;-146.25;100.00;52469.56;2104665;28;20041;-65
2024/04/01 04:19:35;;;;;;;30.77;18.35;;;;;;;-146.25;100.00;52467.56;2113035;28;20127;-64
2024/04/01 04:20:36;;;;;;;29.45;17.38;;;;;;;-146.25;100.00;52461.47;2104574;28;20315;-64
2024/04/01 04:21:37;;;;;;;31.92;18.17;;;;;;;-146.25;100.00;52485.81;2104494;28;20142;-64
2024/04/01 04:22:38;;;;;;;32.70;19.02;;;;;;;-146.25;100.00;52473.63;2104497;28;20497;-65
2024/04/01 04:23:39;;;;;;;24.92;17.90;;;;;;;-146.25;100.00;52469.56;2112695;28;20040;-64
2024/04/01 04:24:42;;;;;;;30.10;17.90;;;;;;;-146.25;100.00;52471.59;2095911;28;20041;-64
2024/04/01 04:25:43;;;;;;;31.55;17.20;;;;;;;-146.25;100.00;52451.31;2082399;28;20050;-64
2024/04/01 04:26:44;;;;;;;32.17;19.17;;;;;;;-146.25;100.00;52485.81;2087792;28;20045;-65
2024/04/01 04:27:45;;;;;;;28.92;17.55;;;;;;;-146.25;100.00;52463.50;2095964;28;20041;-64
2024/04/01 04:28:45;;;;;;;29.30;18.80;;;;;;;-146.25;100.00;52473.63;2096228;28;20092;-65
2024/04/01 04:29:46;;;;;;;30.65;18.05;;;;;;;-146.25;100.00;52465.53;2087661;28;20545;-65
2024/04/01 04:30:48;;;;;;;32.13;18.75;;;;;;;-146.25;100.00;52437.13;2087767;28;20041;-65
2024/04/01 04:31:55;;;;;;;34.58;17.92;;;;;;;-146.25;100.00;52495.94;2079622;28;21179;-64
2024/04/01 04:32:56;;;;;;;31.88;20.15;;;;;;;-146.25;100.00;52475.66;2081233;28;20076;-64
2024/04/01 04:33:59;;;;;;;29.33;18.45;;;;;;;-146.25;100.00;52485.81;2087843;28;20482;-64